createdAt,value
2018-07-15T00:05:03.747Z,3.73
2018-07-15T00:07:34.727Z,3.70
2018-07-15T00:10:04.174Z,3.80
2018-07-15T00:12:32.973Z,3.97
2018-07-15T00:15:01.952Z,4.20
2018-07-15T00:17:30.860Z,3.87
2018-07-15T00:20:05.770Z,3.90
2018-07-15T00:22:38.226Z,4.10
2018-07-15T00:25:13.894Z,4.27
2018-07-15T00:27:42.679Z,3.97
2018-07-15T00:30:11.491Z,3.90
2018-07-15T00:32:40.275Z,4.10
2018-07-15T00:35:09.761Z,4.50
2018-07-15T00:37:40.115Z,4.60
2018-07-15T00:40:11.110Z,3.90
2018-07-15T00:42:42.308Z,4.07
2018-07-15T00:45:11.118Z,4.20
2018-07-15T00:47:39.922Z,4.50
2018-07-15T00:50:08.899Z,4.60
2018-07-15T00:52:38.050Z,4.50
2018-07-15T00:55:11.379Z,4.70
2018-07-15T00:57:43.041Z,4.73
2018-07-15T01:00:13.744Z,4.33
2018-07-15T01:02:42.506Z,4.60
2018-07-15T01:05:11.316Z,4.90
2018-07-15T01:07:40.156Z,5.27
2018-07-15T01:10:10.562Z,4.50
2018-07-15T01:12:42.732Z,4.40
2018-07-15T01:15:17.735Z,4.50
2018-07-15T01:17:50.154Z,4.93
2018-07-15T01:20:18.865Z,5.00
2018-07-15T01:22:47.612Z,4.90
2018-07-15T01:25:16.475Z,4.30
2018-07-15T01:27:46.421Z,4.20
2018-07-15T01:30:19.171Z,3.97
2018-07-15T01:32:51.323Z,4.10
2018-07-15T01:35:22.156Z,4.40
2018-07-15T01:37:50.958Z,4.83
2018-07-15T01:40:19.778Z,5.27
2018-07-15T01:42:48.775Z,5.50
2018-07-15T01:45:18.746Z,4.93
2018-07-15T01:47:48.579Z,5.57
2018-07-15T01:50:18.303Z,5.23
2018-07-15T01:52:48.814Z,4.97
2018-07-15T01:55:17.581Z,5.33
2018-07-15T01:57:46.308Z,5.50
2018-07-15T02:00:15.215Z,5.43
2018-07-15T02:02:46.110Z,5.33
2018-07-15T02:05:16.318Z,5.33
2018-07-15T02:07:47.015Z,5.33
2018-07-15T02:10:20.280Z,5.73
2018-07-15T02:12:49.068Z,5.10
2018-07-15T02:15:17.922Z,5.30
2018-07-15T02:17:46.913Z,5.60
2018-07-15T02:20:17.889Z,5.27
2018-07-15T02:22:48.116Z,5.40
2018-07-15T02:25:19.179Z,5.27
2018-07-15T02:27:54.228Z,5.57
2018-07-15T02:30:22.946Z,5.60
2018-07-15T02:32:51.706Z,5.97
2018-07-15T02:35:20.622Z,5.30
2018-07-15T02:37:50.502Z,5.67
2018-07-15T02:40:23.084Z,5.80
2018-07-15T02:42:54.470Z,5.53
2018-07-15T02:45:24.345Z,5.33
2018-07-15T02:47:55.966Z,5.60
2018-07-15T02:50:24.754Z,5.17
2018-07-15T02:52:54.750Z,4.97
2018-07-15T02:55:23.694Z,5.40
2018-07-15T02:57:55.440Z,5.33
2018-07-15T03:00:28.030Z,5.13
2018-07-15T03:02:59.023Z,5.40
2018-07-15T03:05:27.859Z,5.17
2018-07-15T03:07:56.807Z,5.27
2018-07-15T03:10:25.582Z,5.40
2018-07-15T03:12:54.628Z,6.67
2018-07-15T03:15:30.092Z,5.80
2018-07-15T03:18:00.192Z,5.10
2018-07-15T03:20:30.184Z,5.57
2018-07-15T03:22:58.954Z,5.50
2018-07-15T03:25:27.753Z,5.90
2018-07-15T03:27:56.533Z,5.57
2018-07-15T03:30:25.370Z,5.97
2018-07-15T03:32:56.154Z,5.43
2018-07-15T03:35:26.687Z,5.10
2018-07-15T03:37:58.668Z,5.13
2018-07-15T03:40:27.522Z,5.20
2018-07-15T03:42:56.255Z,5.40
2018-07-15T03:45:25.247Z,5.23
2018-07-15T03:47:54.178Z,5.23
2018-07-15T03:50:24.150Z,5.47
2018-07-15T03:52:55.272Z,5.07
2018-07-15T03:55:34.623Z,5.20
2018-07-15T03:58:03.475Z,5.30
2018-07-15T04:00:32.253Z,5.53
2018-07-15T04:03:01.055Z,5.50
2018-07-15T04:05:30.231Z,5.07
2018-07-15T04:08:02.003Z,5.37
2018-07-15T04:10:32.277Z,5.30
2018-07-15T04:13:03.645Z,5.03
2018-07-15T04:15:32.474Z,5.53
2018-07-15T04:18:04.610Z,5.27
2018-07-15T04:20:34.726Z,5.40
2018-07-15T04:23:04.546Z,5.07
2018-07-15T04:25:35.323Z,5.43
2018-07-15T04:28:06.692Z,5.50
2018-07-15T04:30:38.379Z,5.27
2018-07-15T04:33:07.092Z,5.30
2018-07-15T04:35:35.933Z,5.20
2018-07-15T04:38:04.734Z,5.27
2018-07-15T04:40:33.686Z,5.70
2018-07-15T04:43:03.767Z,5.37
2018-07-15T04:45:34.779Z,5.23
2018-07-15T04:48:06.283Z,5.10
2018-07-15T04:50:35.070Z,5.50
2018-07-15T04:53:03.897Z,5.03
2018-07-15T04:55:32.663Z,5.20
2018-07-15T04:58:01.627Z,5.20
2018-07-15T05:00:31.387Z,5.03
2018-07-15T05:03:02.774Z,5.27
2018-07-15T05:05:35.622Z,5.40
2018-07-15T05:08:04.420Z,5.40
2018-07-15T05:10:33.209Z,5.27
2018-07-15T05:13:01.963Z,5.33
2018-07-15T05:15:30.866Z,5.40
2018-07-15T05:18:01.758Z,5.40
2018-07-15T05:20:32.681Z,5.67
2018-07-15T05:23:04.179Z,5.50
2018-07-15T05:25:35.186Z,5.80
2018-07-15T05:28:03.913Z,6.40
2018-07-15T05:30:32.691Z,6.17
2018-07-15T05:33:01.614Z,5.70
2018-07-15T05:35:35.512Z,6.57
2018-07-15T05:38:06.687Z,5.47
2018-07-15T05:40:39.572Z,6.27
2018-07-15T05:43:08.474Z,5.67
2018-07-15T05:45:37.367Z,6.17
2018-07-15T05:48:06.171Z,6.10
2018-07-15T05:50:35.046Z,6.33
2018-07-15T05:53:06.015Z,5.93
2018-07-15T05:55:42.496Z,6.17
2018-07-15T05:58:15.208Z,6.17
2018-07-15T06:00:44.018Z,8.10
2018-07-15T06:03:12.722Z,7.60
2018-07-15T06:05:41.580Z,6.97
2018-07-15T06:08:10.478Z,6.10
2018-07-15T06:10:40.613Z,6.70
2018-07-15T06:13:11.333Z,6.70
2018-07-15T06:15:42.470Z,6.63
2018-07-15T06:18:11.255Z,6.40
2018-07-15T06:20:40.012Z,7.03
2018-07-15T06:23:08.831Z,6.70
2018-07-15T06:25:37.746Z,7.00
2018-07-15T06:28:08.178Z,7.30
2018-07-15T06:30:37.903Z,7.00
2018-07-15T06:33:11.883Z,7.60
2018-07-15T06:35:46.370Z,7.77
2018-07-15T06:38:15.113Z,8.10
2018-07-15T06:40:43.914Z,8.20
2018-07-15T06:43:12.774Z,7.90
2018-07-15T06:50:58.896Z,8.20
2018-07-15T06:53:27.718Z,7.17
2018-07-15T06:56:04.336Z,7.37
2018-07-15T06:58:33.133Z,6.40
2018-07-15T07:01:03.067Z,6.83
2018-07-15T07:03:35.599Z,7.20
2018-07-15T07:06:11.619Z,6.90
2018-07-15T07:08:42.447Z,7.17
2018-07-15T07:11:30.922Z,6.83
2018-07-15T07:13:59.746Z,7.00
2018-07-15T07:16:28.649Z,7.03
2018-07-15T07:18:59.570Z,7.23
2018-07-15T07:21:34.350Z,8.23
2018-07-15T07:24:04.860Z,7.87
2018-07-15T07:26:39.963Z,7.33
2018-07-15T07:29:10.598Z,8.07
2018-07-15T07:31:39.429Z,6.77
2018-07-15T07:34:08.175Z,7.23
2018-07-15T07:36:36.991Z,7.77
2018-07-15T07:39:06.568Z,7.10
2018-07-15T07:41:40.060Z,7.20
2018-07-15T07:44:10.547Z,7.40
2018-07-15T07:46:42.527Z,6.80
2018-07-15T07:49:15.064Z,6.40
2018-07-15T07:51:43.929Z,6.73
2018-07-15T07:54:12.614Z,7.00
2018-07-15T07:56:41.442Z,6.53
2018-07-15T07:59:12.654Z,6.77
2018-07-15T08:01:54.124Z,6.23
2018-07-15T08:04:31.348Z,6.47
2018-07-15T08:09:57.050Z,5.97
2018-07-15T08:12:25.828Z,6.07
2018-07-15T08:14:54.572Z,6.13
2018-07-15T08:17:27.339Z,6.23
2018-07-15T08:19:58.587Z,6.30
2018-07-15T08:22:31.642Z,5.20
2018-07-15T08:25:01.871Z,5.40
2018-07-15T08:27:30.990Z,5.00
2018-07-15T08:30:12.028Z,4.90
2018-07-15T08:32:40.818Z,5.00
2018-07-15T08:35:12.150Z,5.27
2018-07-15T08:37:43.156Z,5.87
2018-07-15T08:40:14.191Z,5.33
2018-07-15T08:42:43.181Z,5.60
2018-07-15T08:45:11.945Z,5.33
2018-07-15T08:47:41.978Z,4.93
2018-07-15T08:50:10.884Z,4.70
2018-07-15T08:52:43.623Z,4.50
2018-07-15T08:55:18.221Z,4.63
2018-07-15T08:57:51.079Z,5.13
2018-07-15T09:00:19.908Z,4.70
2018-07-15T09:02:48.741Z,4.70
2018-07-15T09:05:17.506Z,4.90
2018-07-15T09:07:46.554Z,4.63
2018-07-15T09:10:19.267Z,5.30
2018-07-15T09:13:07.263Z,5.07
2018-07-15T09:15:43.262Z,4.23
2018-07-15T09:18:19.078Z,4.30
2018-07-15T09:20:47.991Z,4.40
2018-07-15T09:23:16.728Z,4.20
2018-07-15T09:25:45.742Z,4.20
2018-07-15T09:28:22.435Z,4.20
2018-07-15T09:30:58.465Z,4.37
2018-07-15T09:33:33.389Z,3.90
2018-07-15T09:36:06.541Z,3.40
2018-07-15T09:38:35.587Z,3.53
2018-07-15T09:41:04.853Z,3.67
2018-07-15T09:58:37.576Z,3.83
2018-07-15T10:01:39.565Z,3.80
2018-07-15T10:04:36.887Z,4.13
2018-07-15T10:07:07.595Z,3.23
2018-07-15T10:09:40.375Z,3.80
2018-07-15T10:12:16.228Z,3.47
2018-07-15T10:14:51.150Z,3.47
2018-07-15T10:17:27.185Z,3.50
2018-07-15T10:19:56.039Z,3.20
2018-07-15T10:22:33.498Z,3.20
2018-07-15T10:25:02.373Z,3.97
2018-07-15T10:31:27.712Z,3.23
2018-07-15T10:39:46.962Z,3.00
2018-07-15T10:44:01.088Z,3.10
2018-07-15T10:49:58.815Z,3.20
2018-07-15T10:55:30.477Z,2.83
2018-07-15T10:58:10.330Z,2.80
2018-07-15T11:00:44.336Z,3.17
2018-07-15T11:03:13.242Z,2.93
2018-07-15T11:05:44.081Z,3.20
2018-07-15T11:08:32.444Z,2.90
2018-07-15T11:11:01.505Z,3.70
2018-07-15T11:17:02.325Z,3.30
2018-07-15T11:19:43.852Z,2.87
2018-07-15T11:22:12.715Z,2.93
2018-07-15T11:24:41.544Z,2.87
2018-07-15T11:27:10.402Z,3.17
2018-07-15T11:29:39.566Z,3.27
2018-07-15T11:32:24.260Z,3.30
2018-07-15T11:51:48.309Z,2.87
2018-07-15T11:54:17.118Z,3.00
2018-07-15T11:56:46.019Z,2.90
2018-07-15T11:59:15.147Z,2.90
2018-07-15T12:01:59.208Z,2.47
2018-07-15T12:10:10.359Z,2.63
2018-07-15T12:15:18.409Z,2.60
2018-07-15T12:17:47.274Z,2.50
2018-07-15T12:20:16.138Z,2.50
2018-07-15T12:22:51.074Z,2.90
2018-07-15T12:25:34.509Z,2.80
2018-07-15T12:30:50.340Z,2.97
2018-07-15T12:33:19.206Z,2.70
2018-07-15T12:35:48.398Z,2.50
2018-07-15T12:38:17.314Z,2.50
2018-07-15T12:50:21.746Z,3.10
2018-07-15T12:52:50.731Z,3.30
2018-07-15T12:55:19.583Z,3.20
2018-07-15T12:57:48.968Z,3.53
2018-07-15T13:00:19.650Z,3.30
2018-07-15T13:02:52.499Z,3.63
2018-07-15T13:05:26.416Z,3.63
2018-07-15T13:08:02.213Z,3.80
2018-07-15T13:10:31.160Z,3.47
2018-07-15T13:13:00.051Z,3.67
2018-07-15T13:15:28.874Z,3.10
2018-07-15T13:17:58.276Z,3.20
2018-07-15T13:20:34.343Z,3.30
2018-07-15T13:23:12.456Z,3.13
2018-07-15T13:25:47.333Z,3.17
2018-07-15T13:28:20.524Z,3.40
2018-07-15T13:30:55.415Z,3.10
2018-07-15T13:33:31.313Z,3.07
2018-07-15T13:36:00.195Z,3.30
2018-07-15T13:38:29.026Z,3.30
2018-07-15T13:40:57.934Z,3.33
2018-07-15T13:43:27.503Z,3.13
2018-07-15T13:46:02.296Z,2.60
2018-07-15T13:48:39.317Z,3.00
2018-07-15T13:51:11.207Z,2.90
2018-07-15T13:53:40.064Z,2.77
2018-07-15T13:56:08.866Z,2.43
2018-07-15T13:58:37.722Z,2.97
2018-07-15T14:01:07.540Z,2.97
2018-07-15T14:03:42.438Z,2.50
2018-07-15T14:06:19.601Z,2.60
2018-07-15T14:08:55.260Z,2.80
2018-07-15T14:11:26.207Z,2.93
2018-07-15T14:13:55.986Z,2.40
2018-07-15T14:16:24.774Z,2.60
2018-07-15T14:18:53.747Z,2.50
2018-07-15T14:21:30.352Z,2.57
2018-07-15T14:24:03.784Z,2.53
2018-07-15T14:26:34.688Z,2.73
2018-07-15T14:29:04.945Z,3.00
2018-07-15T14:31:34.786Z,2.50
2018-07-15T14:34:04.230Z,2.40
2018-07-15T14:36:33.068Z,2.60
2018-07-15T14:39:02.263Z,2.70
2018-07-15T14:41:35.872Z,2.70
2018-07-15T14:44:07.314Z,2.30
2018-07-15T14:46:36.923Z,2.70
2018-07-15T14:49:05.873Z,2.50
2018-07-15T14:51:34.655Z,2.33
2018-07-15T14:54:03.445Z,2.67
2018-07-15T14:56:32.744Z,2.50
2018-07-15T14:59:02.719Z,2.57
2018-07-15T15:01:34.770Z,2.50
2018-07-15T15:04:07.459Z,2.50
2018-07-15T15:06:36.291Z,2.60
2018-07-15T15:09:06.160Z,2.37
2018-07-15T15:11:35.056Z,2.40
2018-07-15T15:14:09.570Z,2.40
2018-07-15T15:16:54.392Z,2.77
2018-07-15T15:19:30.742Z,2.73
2018-07-15T15:22:30.878Z,2.83
2018-07-15T15:24:59.746Z,3.00
2018-07-15T15:27:31.644Z,2.90
2018-07-15T15:30:01.236Z,3.10
2018-07-15T15:32:31.643Z,3.10
2018-07-15T15:44:09.432Z,3.07
2018-07-15T15:46:38.538Z,3.07
2018-07-15T15:49:07.723Z,2.90
2018-07-15T15:52:03.459Z,2.90
2018-07-15T16:00:14.616Z,3.47
2018-07-15T16:02:59.428Z,3.47
2018-07-15T16:05:44.153Z,3.33
2018-07-15T16:08:26.236Z,3.63
2018-07-15T16:10:55.254Z,3.33
2018-07-15T16:13:24.205Z,3.53
2018-07-15T16:15:53.074Z,3.13
2018-07-15T16:18:30.853Z,3.50
2018-07-15T16:21:12.289Z,3.50
2018-07-15T16:23:52.097Z,3.17
2018-07-15T16:26:23.644Z,3.30
2018-07-15T16:28:56.561Z,3.67
2018-07-15T16:31:42.693Z,3.53
2018-07-15T16:40:11.043Z,3.53
2018-07-15T16:42:50.082Z,3.50
2018-07-15T17:03:14.201Z,3.23
2018-07-15T17:05:43.990Z,2.70
2018-07-15T17:08:12.889Z,2.60
2018-07-15T17:10:41.804Z,2.47
2018-07-15T17:13:10.845Z,2.40
2018-07-15T17:15:47.434Z,2.70
2018-07-15T17:18:22.300Z,2.40
2018-07-15T17:23:35.782Z,2.40
2018-07-15T17:26:04.800Z,2.40
2018-07-15T17:28:33.676Z,2.67
2018-07-15T17:31:02.575Z,2.70
2018-07-15T17:33:52.173Z,2.77
2018-07-15T17:42:55.447Z,2.63
2018-07-15T17:45:30.568Z,2.53
2018-07-15T17:50:51.667Z,2.33
2018-07-15T17:53:20.572Z,2.60
2018-07-15T17:55:49.543Z,2.70
2018-07-15T18:01:48.307Z,3.00
2018-07-15T18:04:20.535Z,3.00
2018-07-15T18:06:50.651Z,2.70
2018-07-15T18:09:25.166Z,2.93
2018-07-15T18:11:54.042Z,3.13
2018-07-15T18:14:23.003Z,3.40
2018-07-15T18:16:52.191Z,3.30
2018-07-15T18:25:14.403Z,3.77
2018-07-15T18:27:51.518Z,3.40
2018-07-15T18:30:28.648Z,3.40
2018-07-15T18:33:06.613Z,3.37
2018-07-15T18:35:39.567Z,3.67
2018-07-15T18:38:08.430Z,3.87
2018-07-15T18:40:37.347Z,3.63
2018-07-15T18:43:06.259Z,3.63
2018-07-15T18:45:35.496Z,4.10
2018-07-15T18:48:07.372Z,3.80
2018-07-15T18:50:38.886Z,3.80
2018-07-15T18:53:20.632Z,3.97
2018-07-15T18:56:00.233Z,3.90
2018-07-15T18:58:33.667Z,4.10
2018-07-15T19:11:07.395Z,4.20
2018-07-15T19:13:40.470Z,3.60
2018-07-15T19:16:11.296Z,4.03
2018-07-15T19:18:43.515Z,3.67
2018-07-15T19:21:14.655Z,3.50
2018-07-15T19:23:43.459Z,3.93
2018-07-15T19:26:13.303Z,4.10
2018-07-15T19:28:42.302Z,3.93
2018-07-15T19:31:12.353Z,3.80
2018-07-15T19:33:43.326Z,3.87
2018-07-15T19:36:12.885Z,3.80
2018-07-15T19:38:46.725Z,4.07
2018-07-15T19:41:19.662Z,3.93
2018-07-15T19:43:51.692Z,4.17
2018-07-15T19:46:20.478Z,4.00
2018-07-15T19:48:49.270Z,4.47
2018-07-15T19:51:18.009Z,3.70
2018-07-15T19:53:47.526Z,4.37
2018-07-15T19:56:17.967Z,4.20
2018-07-15T19:58:48.066Z,4.33
2018-07-15T20:01:20.072Z,4.60
2018-07-15T20:03:55.213Z,4.20
2018-07-15T20:06:29.042Z,4.47
2018-07-15T20:08:57.778Z,3.87
2018-07-15T20:11:26.566Z,4.00
2018-07-15T20:14:28.689Z,4.57
2018-07-15T20:17:15.764Z,4.20
2018-07-15T20:25:32.198Z,4.20
2018-07-15T20:28:04.344Z,5.20
2018-07-15T20:30:34.755Z,4.73
2018-07-15T20:33:06.687Z,4.67
2018-07-15T20:35:35.663Z,5.10
2018-07-15T20:38:04.489Z,5.27
2018-07-15T20:40:33.458Z,5.27
2018-07-15T20:43:03.251Z,5.20
2018-07-15T20:45:33.330Z,4.90
2018-07-15T20:48:04.131Z,4.90
2018-07-15T20:50:34.802Z,5.63
2018-07-15T20:53:05.860Z,4.50
2018-07-15T20:55:34.754Z,4.40
2018-07-15T20:58:03.709Z,4.50
2018-07-15T21:00:32.475Z,4.10
2018-07-15T21:03:01.584Z,4.40
2018-07-15T21:05:31.776Z,4.50
2018-07-15T21:08:01.781Z,4.97
2018-07-15T21:10:32.305Z,5.13
2018-07-15T21:13:24.015Z,4.60
2018-07-15T21:18:42.525Z,4.73
2018-07-15T21:21:15.977Z,4.53
2018-07-15T21:23:44.967Z,4.50
2018-07-15T21:26:18.775Z,4.20
2018-07-15T21:28:49.019Z,7.00
2018-07-15T21:31:21.593Z,9.33
2018-07-15T21:33:54.892Z,7.23
2018-07-15T21:36:26.818Z,6.37
2018-07-15T21:38:55.707Z,10.87
2018-07-15T21:41:24.494Z,6.00
2018-07-15T21:43:53.263Z,5.20
2018-07-15T21:46:22.595Z,6.57
2018-07-15T21:48:55.612Z,6.83
2018-07-15T21:51:27.213Z,6.30
2018-07-15T21:54:00.459Z,5.70
2018-07-15T21:56:31.736Z,4.57
2018-07-15T21:59:04.731Z,5.00
2018-07-15T22:01:42.722Z,5.00
2018-07-15T22:04:11.990Z,6.20
2018-07-15T22:06:51.753Z,5.50
2018-07-15T22:10:33.094Z,5.00
2018-07-15T22:13:07.599Z,4.40
2018-07-15T22:15:38.757Z,4.13
2018-07-15T22:18:10.702Z,5.20
2018-07-15T22:20:42.717Z,4.80
2018-07-15T22:23:12.558Z,4.90
2018-07-15T22:25:43.385Z,5.30
2018-07-15T22:28:12.148Z,4.73
2018-07-15T22:30:40.998Z,4.93
2018-07-15T22:33:09.730Z,5.10
2018-07-15T22:35:38.682Z,4.47
2018-07-15T22:38:09.590Z,4.83
2018-07-15T22:40:38.775Z,5.17
2018-07-15T22:43:14.940Z,4.83
2018-07-15T22:45:46.136Z,4.70
2018-07-15T22:48:15.907Z,4.47
2018-07-15T22:50:50.595Z,4.37
2018-07-15T22:53:23.309Z,4.33
2018-07-15T22:55:55.459Z,4.83
2018-07-15T22:58:24.330Z,4.63
2018-07-15T23:00:53.182Z,4.80
2018-07-15T23:03:22.082Z,5.73
2018-07-15T23:06:04.531Z,5.17
2018-07-15T23:08:34.941Z,5.13
2018-07-15T23:11:04.799Z,4.83
2018-07-15T23:13:35.904Z,4.70
2018-07-15T23:16:07.811Z,5.20
2018-07-15T23:18:39.327Z,5.43
2018-07-15T23:21:08.186Z,4.80
2018-07-15T23:23:36.987Z,5.23
2018-07-15T23:26:06.719Z,5.23
2018-07-15T23:28:35.830Z,5.60
2018-07-15T23:31:06.655Z,5.40
2018-07-15T23:33:38.701Z,5.40
2018-07-15T23:36:09.632Z,5.30
2018-07-15T23:38:39.287Z,5.50
2018-07-15T23:41:09.291Z,15.37
2018-07-15T23:43:38.202Z,12.63
2018-07-15T23:46:06.980Z,9.40
2018-07-15T23:48:35.778Z,7.50
2018-07-15T23:51:04.993Z,6.27
2018-07-15T23:53:35.730Z,5.20
2018-07-15T23:56:06.826Z,6.20
2018-07-15T23:58:39.424Z,5.67
